Iblea — IBFK — position and weather

sailwx.info

Track history (hours):
 
Tides and Currents Weather Stations Pressure Air Temp Water Temp Dewpoint Dewpoint Depression Visibility Wind Speed Wind Dir Waves Ship Positions

Iblea

Last reported at 2014-Oct-21 00:14 UTC. Time now 2014-Oct-31 20:43 UTC.
Position N 35°35' E 027°42'.
Warning: this ship's position is 10 days out of date.

Length 176 m; draft 10.7 m.

Type: Ship (hazmat cat C). MMSI: 247087700.

Date/timePositionNaut miles runAvg speedWind from/ knotsBaromVisibWave heightAir tempDewpointWater temp
2014-Oct-21 00:14N 35°35' E 027°42'1012.7
2014-Oct-20 23:29N 35°42' E 027°34'1312.6
2014-Oct-20 22:25N 35°52' E 027°23'2912.6
2014-Oct-20 20:08N 36°14' E 026°60'812.8
2014-Oct-20 19:30N 36°20' E 026°53'1212.6
2014-Oct-20 18:31N 36°30' E 026°43'1212.8
2014-Oct-20 17:33N 36°39' E 026°33'1212.5
2014-Oct-20 16:33N 36°48' E 026°23'1312.7
2014-Oct-20 15:33N 36°58' E 026°13'1312.6
2014-Oct-20 14:33N 37°09' E 026°06'1212.3
2014-Oct-20 13:33N 37°20' E 025°58'1212.5
2014-Oct-20 12:33N 37°32' E 025°52'1412.4
2014-Oct-20 11:28N 37°45' E 025°50'1112.4
2014-Oct-20 10:33N 37°56' E 025°48'1212.3
2014-Oct-20 09:33N 38°09' E 025°45'1212.0
2014-Oct-20 08:33N 38°20' E 025°44'1211.9
2014-Oct-20 07:33N 38°32' E 025°45'1712.0
2014-Oct-20 06:07N 38°50' E 025°45'5612.2
2014-Oct-20 01:32N 39°45' E 025°46'1512.9
2014-Oct-20 00:24N 39°58' E 025°56'2311.8
2014-Oct-19 22:26N 40°09' E 026°23'1413.2
2014-Oct-19 21:22N 40°19' E 026°36'9 9.9
2014-Oct-19 20:31N 40°25' E 026°43'86 3.7
2014-Oct-18 21:30N 40°46' E 028°33'1212.9
2014-Oct-18 20:33N 40°45' E 028°50'1312.7
2014-Oct-18 19:33N 40°45' E 029°06'1211.9
2014-Oct-18 18:33N 40°44' E 029°22'7 6.7
2014-Oct-18 17:27N 40°45' E 029°32'  
Track history (hours):
 
Tides and Currents Weather Stations Pressure Air Temp Water Temp Dewpoint Dewpoint Depression Visibility Wind Speed Wind Dir Waves Ship Positions

Iblea

Last reported at 2014-Oct-21 00:14 UTC. Time now 2014-Oct-31 20:43 UTC.
Position N 35°35' E 027°42'.
Warning: this ship's position is 10 days out of date.

Length 176 m; draft 10.7 m.

Type: Ship (hazmat cat C). MMSI: 247087700.

Date/timePositionNaut miles runAvg speedWind from/ knotsBaromVisibWave heightAir tempDewpointWater temp
2014-Oct-21 00:14N 35°35' E 027°42'1012.7
2014-Oct-20 23:29N 35°42' E 027°34'1312.6
2014-Oct-20 22:25N 35°52' E 027°23'2912.6
2014-Oct-20 20:08N 36°14' E 026°60'812.8
2014-Oct-20 19:30N 36°20' E 026°53'1212.6
2014-Oct-20 18:31N 36°30' E 026°43'1212.8
2014-Oct-20 17:33N 36°39' E 026°33'1212.5
2014-Oct-20 16:33N 36°48' E 026°23'1312.7
2014-Oct-20 15:33N 36°58' E 026°13'1312.6
2014-Oct-20 14:33N 37°09' E 026°06'1212.3
2014-Oct-20 13:33N 37°20' E 025°58'1212.5
2014-Oct-20 12:33N 37°32' E 025°52'1412.4
2014-Oct-20 11:28N 37°45' E 025°50'1112.4
2014-Oct-20 10:33N 37°56' E 025°48'1212.3
2014-Oct-20 09:33N 38°09' E 025°45'1212.0
2014-Oct-20 08:33N 38°20' E 025°44'1211.9
2014-Oct-20 07:33N 38°32' E 025°45'1712.0
2014-Oct-20 06:07N 38°50' E 025°45'5612.2
2014-Oct-20 01:32N 39°45' E 025°46'1512.9
2014-Oct-20 00:24N 39°58' E 025°56'2311.8
2014-Oct-19 22:26N 40°09' E 026°23'1413.2
2014-Oct-19 21:22N 40°19' E 026°36'9 9.9
2014-Oct-19 20:31N 40°25' E 026°43'86 3.7
2014-Oct-18 21:30N 40°46' E 028°33'1212.9
2014-Oct-18 20:33N 40°45' E 028°50'1312.7
2014-Oct-18 19:33N 40°45' E 029°06'1211.9
2014-Oct-18 18:33N 40°44' E 029°22'7 6.7
2014-Oct-18 17:27N 40°45' E 029°32'  

Dump ship's entire track history